createdAt,value
2018-04-20T04:48:25.948Z,82.75
2018-04-20T04:50:53.793Z,91.22
2018-04-20T04:53:21.889Z,82.32
2018-04-20T04:55:49.999Z,81.80
2018-04-20T04:58:18.845Z,80.62
2018-04-20T05:00:46.779Z,88.82
2018-04-20T05:03:14.688Z,82.28
2018-04-20T05:05:42.609Z,92.63
2018-04-20T05:08:10.515Z,84.45
2018-04-20T05:10:38.380Z,83.12
2018-04-20T05:13:06.248Z,95.70
2018-04-20T05:15:34.261Z,99.18
2018-04-20T05:18:02.181Z,91.10
2018-04-20T05:20:30.122Z,87.55
2018-04-20T05:22:58.017Z,91.15
2018-04-20T05:25:26.737Z,89.00
2018-04-20T05:27:55.392Z,88.60
2018-04-20T05:30:23.262Z,83.32
2018-04-20T05:32:51.185Z,85.60
2018-04-20T05:35:19.088Z,84.60
2018-04-20T05:37:46.961Z,89.10
2018-04-20T05:40:14.930Z,85.93
2018-04-20T05:42:42.892Z,89.37
2018-04-20T05:45:10.862Z,91.65
2018-04-20T05:47:38.751Z,94.35
2018-04-20T05:50:07.410Z,96.07
2018-04-20T05:52:35.377Z,90.70
2018-04-20T05:55:03.345Z,87.80
2018-04-20T05:57:31.317Z,85.90
2018-04-20T05:59:59.182Z,86.68
2018-04-20T06:02:27.147Z,84.30
2018-04-20T06:04:55.119Z,85.30
2018-04-20T06:07:23.090Z,87.22
2018-04-20T06:09:51.065Z,83.53
2018-04-20T06:12:19.102Z,80.15
2018-04-20T06:14:46.998Z,82.88
2018-04-20T06:17:15.064Z,78.65
2018-04-20T06:19:43.202Z,82.45
2018-04-20T06:22:11.103Z,82.07
2018-04-20T06:24:39.050Z,81.00
2018-04-20T06:27:06.940Z,80.53
2018-04-20T06:29:34.960Z,86.53
2018-04-20T06:32:02.874Z,80.50
2018-04-20T06:34:30.744Z,82.12
2018-04-20T06:36:58.631Z,81.85
2018-04-20T06:39:27.521Z,81.90
2018-04-20T06:41:56.384Z,84.20
2018-04-20T06:44:24.306Z,80.78
2018-04-20T06:46:52.376Z,82.90
2018-04-20T06:49:20.293Z,83.15
2018-04-20T06:51:48.261Z,83.57
2018-04-20T06:54:16.232Z,81.22
2018-04-20T06:56:44.145Z,78.30
2018-04-20T06:59:12.027Z,80.53
2018-04-20T07:01:39.967Z,75.45
2018-04-20T07:04:08.764Z,80.72
2018-04-20T07:06:36.686Z,80.12
2018-04-20T07:09:04.731Z,79.55
2018-04-20T07:11:32.620Z,80.70
2018-04-20T07:14:00.507Z,82.97
2018-04-20T07:16:28.357Z,82.45
2018-04-20T07:18:56.197Z,85.07
2018-04-20T07:21:24.037Z,80.10
2018-04-20T07:23:52.051Z,82.50
2018-04-20T07:26:20.035Z,80.93
2018-04-20T07:28:47.899Z,79.35
2018-04-20T07:31:15.879Z,77.00
2018-04-20T07:33:43.809Z,79.78
2018-04-20T07:36:11.709Z,78.18
2018-04-20T07:38:39.682Z,82.10
2018-04-20T07:41:07.655Z,77.95
2018-04-20T07:43:35.615Z,79.22
2018-04-20T07:46:03.585Z,81.53
2018-04-20T07:48:31.635Z,80.43
2018-04-20T07:50:59.640Z,80.38
2018-04-20T07:53:27.675Z,77.78
2018-04-20T07:55:55.849Z,80.25
2018-04-20T07:58:23.809Z,77.32
2018-04-20T08:00:51.892Z,79.20
2018-04-20T08:03:19.970Z,77.47
2018-04-20T08:05:48.176Z,80.75
2018-04-20T08:08:16.322Z,78.12
2018-04-20T08:10:45.086Z,78.78
2018-04-20T08:13:13.207Z,79.47
2018-04-20T08:15:41.011Z,79.72
2018-04-20T08:18:08.893Z,78.20
2018-04-20T08:20:37.007Z,79.60
2018-04-20T08:23:04.931Z,78.15
2018-04-20T08:25:32.911Z,79.47
2018-04-20T08:28:00.886Z,79.30
2018-04-20T08:30:28.825Z,78.60
2018-04-20T08:32:56.815Z,77.80
2018-04-20T08:35:24.781Z,77.50
2018-04-20T08:37:52.745Z,79.90
2018-04-20T08:40:20.678Z,79.22
2018-04-20T08:42:48.686Z,78.72
2018-04-20T08:45:16.608Z,75.47
2018-04-20T08:47:44.478Z,78.70
2018-04-20T08:50:12.490Z,77.35
2018-04-20T08:52:40.319Z,78.35
2018-04-20T08:55:08.328Z,76.80
2018-04-20T08:57:37.002Z,76.62
2018-04-20T09:00:04.971Z,76.50
2018-04-20T09:02:32.911Z,77.57
2018-04-20T09:05:00.804Z,77.07
2018-04-20T09:07:28.773Z,75.70
2018-04-20T09:09:56.745Z,77.62
2018-04-20T09:12:24.588Z,77.22
2018-04-20T09:14:52.477Z,78.10
2018-04-20T09:17:20.317Z,74.80
2018-04-20T09:19:48.208Z,78.97
2018-04-20T09:22:16.178Z,75.20
2018-04-20T09:24:44.145Z,79.80
2018-04-20T09:27:12.009Z,76.05
2018-04-20T09:29:40.198Z,76.18
2018-04-20T09:32:08.113Z,77.72
2018-04-20T09:34:36.108Z,76.45
2018-04-20T09:37:04.200Z,77.90
2018-04-20T09:39:32.205Z,78.32
2018-04-20T09:42:00.223Z,78.10
2018-04-20T09:44:28.302Z,75.62
2018-04-20T09:46:56.387Z,78.53
2018-04-20T09:49:25.140Z,76.90
2018-04-20T09:51:53.971Z,81.45
2018-04-20T09:54:22.911Z,78.95
2018-04-20T09:56:50.931Z,78.62
2018-04-20T09:59:19.695Z,76.80
2018-04-20T10:01:47.869Z,79.87
2018-04-20T10:04:18.575Z,79.80
2018-04-20T10:06:46.469Z,82.57
2018-04-20T10:09:14.440Z,75.15
2018-04-20T10:11:42.308Z,77.43
2018-04-20T10:14:10.272Z,79.43
2018-04-20T10:16:38.355Z,77.75
2018-04-20T10:19:06.450Z,76.70
2018-04-20T10:21:34.598Z,78.47
2018-04-20T10:24:02.566Z,80.53
2018-04-20T10:26:32.034Z,77.43
2018-04-20T10:29:00.044Z,80.10
2018-04-20T10:31:28.110Z,78.32
2018-04-20T10:33:56.062Z,80.32
2018-04-20T10:36:23.929Z,77.55
2018-04-20T10:38:51.876Z,77.22
2018-04-20T10:41:19.848Z,77.70
2018-04-20T10:43:47.837Z,80.30
2018-04-20T10:46:15.912Z,77.65
2018-04-20T10:48:43.845Z,79.95
2018-04-20T10:51:11.742Z,77.03
2018-04-20T10:53:39.567Z,78.40
2018-04-20T10:56:07.474Z,77.05
2018-04-20T10:58:35.440Z,80.82
2018-04-20T11:01:03.412Z,78.90
2018-04-20T11:03:31.304Z,77.32
2018-04-20T11:05:59.959Z,76.57
2018-04-20T11:08:27.824Z,76.05
2018-04-20T11:10:55.697Z,79.50
2018-04-20T11:13:23.632Z,75.68
2018-04-20T11:15:51.528Z,75.97
2018-04-20T11:18:20.173Z,74.20
2018-04-20T11:20:48.073Z,80.60
2018-04-20T11:23:16.159Z,74.40
2018-04-20T11:25:44.116Z,74.75
2018-04-20T11:28:12.087Z,72.10
2018-04-20T11:30:40.786Z,77.20
2018-04-20T11:33:09.453Z,70.65
2018-04-20T11:35:37.293Z,72.22
2018-04-20T11:38:05.186Z,68.60
2018-04-20T11:40:33.033Z,71.10
2018-04-20T11:43:00.952Z,72.80
2018-04-20T11:45:30.216Z,66.22
2018-04-20T11:47:58.083Z,70.75
2018-04-20T11:50:26.050Z,71.35
2018-04-20T11:52:53.920Z,70.60
2018-04-20T11:55:21.783Z,67.65
2018-04-20T11:57:49.759Z,70.47
2018-04-20T12:00:17.720Z,70.03
2018-04-20T12:02:45.588Z,71.53
2018-04-20T12:05:13.554Z,74.90
2018-04-20T12:07:41.423Z,69.85
2018-04-20T12:10:09.288Z,68.28
2018-04-20T12:12:37.259Z,68.68
2018-04-20T12:15:05.225Z,70.50
2018-04-20T12:17:33.096Z,69.55
2018-04-20T12:20:01.163Z,66.70
2018-04-20T12:22:29.027Z,73.10
2018-04-20T12:24:56.895Z,71.75
2018-04-20T12:27:24.937Z,77.22
2018-04-20T12:29:52.727Z,74.95
2018-04-20T12:32:20.598Z,70.35
2018-04-20T12:34:48.462Z,76.82
2018-04-20T12:37:16.327Z,76.57
2018-04-20T12:39:44.299Z,78.60
2018-04-20T12:42:12.268Z,81.00
2018-04-20T12:44:40.132Z,75.40
2018-04-20T12:47:07.995Z,77.70
2018-04-20T12:49:35.861Z,78.62
2018-04-20T12:52:03.829Z,76.05
2018-04-20T12:54:31.700Z,74.90
2018-04-20T12:56:59.568Z,78.78
2018-04-20T12:59:27.428Z,77.72
2018-04-20T13:01:56.011Z,79.70
2018-04-20T13:04:23.980Z,75.72
2018-04-20T13:06:51.845Z,79.25
2018-04-20T13:09:19.712Z,78.28
2018-04-20T13:11:47.680Z,77.40
2018-04-20T13:14:15.510Z,81.45
2018-04-20T13:16:43.313Z,79.12
2018-04-20T13:19:11.178Z,80.95
2018-04-20T13:21:39.145Z,79.57
2018-04-20T13:24:07.018Z,82.65
2018-04-20T13:26:34.989Z,80.65
2018-04-20T13:29:02.804Z,80.12
2018-04-20T13:31:30.710Z,80.25
2018-04-20T13:33:58.577Z,80.82
2018-04-20T13:36:26.526Z,76.85
2018-04-20T13:38:54.410Z,81.50
2018-04-20T13:41:22.277Z,80.07
2018-04-20T13:43:50.143Z,81.25
2018-04-20T13:46:18.012Z,80.43
2018-04-20T13:48:45.877Z,78.25
2018-04-20T13:51:13.742Z,79.72
2018-04-20T13:53:41.605Z,81.37
2018-04-20T13:56:09.477Z,76.28
2018-04-20T13:58:37.314Z,80.22
2018-04-20T14:01:05.204Z,77.72
2018-04-20T14:03:33.056Z,78.12
2018-04-20T14:06:00.922Z,80.40
2018-04-20T14:08:28.770Z,77.55
2018-04-20T14:10:56.668Z,82.00
2018-04-20T14:13:24.533Z,78.90
2018-04-20T14:15:52.406Z,81.78
2018-04-20T14:18:20.268Z,77.65
2018-04-20T14:20:48.341Z,82.25
2018-04-20T14:23:16.314Z,79.00
2018-04-20T14:25:44.282Z,80.85
2018-04-20T14:28:12.253Z,80.62
2018-04-20T14:30:40.084Z,79.32
2018-04-20T14:33:07.975Z,80.07
2018-04-20T14:35:35.841Z,81.78
2018-04-20T14:38:03.823Z,78.32
2018-04-20T14:40:33.211Z,79.57
2018-04-20T14:43:01.185Z,78.07
2018-04-20T14:45:29.175Z,78.65
2018-04-20T14:47:57.833Z,79.50
2018-04-20T14:50:26.621Z,78.25
2018-04-20T14:52:54.489Z,81.60
2018-04-20T14:55:22.363Z,81.65
2018-04-20T14:57:50.219Z,80.80
2018-04-20T15:00:18.084Z,79.28
2018-04-20T15:02:45.950Z,82.55
2018-04-20T15:05:13.815Z,79.90
2018-04-20T15:07:41.710Z,81.15
2018-04-20T15:10:10.377Z,78.97
2018-04-20T15:12:38.277Z,81.30
2018-04-20T15:15:06.876Z,81.47
2018-04-20T15:17:34.885Z,76.07
2018-04-20T15:20:02.861Z,80.28
2018-04-20T15:22:30.721Z,87.03
2018-04-20T15:24:58.488Z,84.82
2018-04-20T15:27:26.458Z,81.87
2018-04-20T15:29:54.376Z,84.28
2018-04-20T15:32:22.289Z,81.12
2018-04-20T15:34:50.156Z,83.80
2018-04-20T15:37:18.223Z,88.65
2018-04-20T15:39:46.192Z,83.57
2018-04-20T15:42:14.162Z,81.53
2018-04-20T15:44:42.028Z,81.40
2018-04-20T15:47:09.997Z,82.72
2018-04-20T15:49:37.940Z,81.00
2018-04-20T15:52:05.834Z,82.97
2018-04-20T15:54:33.696Z,83.32
2018-04-20T15:57:01.562Z,85.35
2018-04-20T15:59:29.419Z,82.62
2018-04-20T16:01:57.293Z,82.30
2018-04-20T16:04:25.296Z,80.50
2018-04-20T16:06:53.342Z,84.72
2018-04-20T16:09:21.200Z,81.85
2018-04-20T16:11:49.066Z,82.07
2018-04-20T16:14:17.140Z,83.00
2018-04-20T16:16:45.109Z,83.68
2018-04-20T16:19:12.971Z,82.82
2018-04-20T16:21:40.941Z,81.30
2018-04-20T16:24:08.984Z,78.57
2018-04-20T16:26:36.875Z,82.07
2018-04-20T16:29:04.747Z,82.20
2018-04-20T16:31:32.824Z,78.50
2018-04-20T16:34:00.666Z,79.28
2018-04-20T16:36:28.649Z,80.68
2018-04-20T16:38:56.625Z,86.32
2018-04-20T16:41:24.585Z,80.62
2018-04-20T16:43:52.455Z,84.57
2018-04-20T16:46:20.316Z,84.40
2018-04-20T16:48:48.182Z,85.30
2018-04-20T16:51:16.051Z,81.37
2018-04-20T16:53:43.914Z,82.32
2018-04-20T16:56:11.781Z,82.68
2018-04-20T16:58:39.609Z,82.78
2018-04-20T17:01:07.614Z,82.53
2018-04-20T17:03:35.481Z,83.05
2018-04-20T17:06:03.555Z,85.35
2018-04-20T17:08:31.419Z,82.68
2018-04-20T17:10:59.242Z,82.53
2018-04-20T17:13:27.139Z,82.78
2018-04-20T17:15:54.966Z,84.30
2018-04-20T17:18:22.752Z,82.22
2018-04-20T17:20:50.755Z,84.03
2018-04-20T17:23:18.823Z,84.80
2018-04-20T17:25:46.876Z,84.50
2018-04-20T17:28:14.754Z,83.07
2018-04-20T17:30:42.573Z,82.93
2018-04-20T17:33:10.489Z,82.50
2018-04-20T17:35:39.897Z,82.57
2018-04-20T17:38:07.856Z,78.65
2018-04-20T17:40:35.718Z,81.00
2018-04-20T17:43:03.563Z,80.55
2018-04-20T17:45:31.623Z,82.32
2018-04-20T17:47:59.478Z,79.22
2018-04-20T17:50:27.420Z,79.87
2018-04-20T17:52:56.083Z,83.60
2018-04-20T17:55:23.951Z,78.82
2018-04-20T17:57:51.918Z,83.70
2018-04-20T18:00:19.781Z,81.12
2018-04-20T18:02:47.750Z,83.60
2018-04-20T18:05:15.753Z,79.28
2018-04-20T18:07:44.405Z,80.38
2018-04-20T18:10:12.266Z,81.32
2018-04-20T18:12:40.132Z,81.15
2018-04-20T18:15:08.830Z,82.97
2018-04-20T18:17:36.682Z,83.45
2018-04-20T18:20:04.650Z,83.22
2018-04-20T18:22:32.520Z,81.65
2018-04-20T18:25:00.485Z,81.82
2018-04-20T18:27:28.352Z,83.07
2018-04-20T18:29:56.321Z,82.60
2018-04-20T18:32:24.188Z,85.07
2018-04-20T18:34:52.053Z,84.60
2018-04-20T18:37:19.918Z,84.18
2018-04-20T18:39:47.988Z,80.47
2018-04-20T18:42:15.882Z,82.20
2018-04-20T18:44:44.540Z,98.80
2018-04-20T18:47:12.407Z,100.12
2018-04-20T18:49:40.275Z,96.00
2018-04-20T18:52:08.244Z,90.20
2018-04-20T18:54:36.058Z,92.05
2018-04-20T18:57:03.979Z,88.82
2018-04-20T18:59:31.944Z,82.65
2018-04-20T19:01:59.922Z,83.32
2018-04-20T19:04:27.775Z,82.50
2018-04-20T19:06:55.620Z,86.82
2018-04-20T19:09:23.505Z,82.70
2018-04-20T19:11:51.295Z,81.95
2018-04-20T19:14:19.878Z,82.80
2018-04-20T19:16:48.468Z,83.45
2018-04-20T19:19:23.497Z,81.90
2018-04-20T19:21:52.066Z,82.37
2018-04-20T19:24:19.884Z,82.65
2018-04-20T19:26:47.687Z,80.60
2018-04-20T19:29:15.481Z,79.50
2018-04-20T19:31:44.037Z,83.60
2018-04-20T19:34:11.890Z,82.90
2018-04-20T19:36:40.422Z,82.25
2018-04-20T19:39:08.203Z,83.95
2018-04-20T19:41:35.987Z,83.22
2018-04-20T19:44:03.738Z,81.25
2018-04-20T19:46:31.533Z,82.35
2018-04-20T19:48:59.317Z,82.40
2018-04-20T19:51:27.162Z,81.80
2018-04-20T19:53:55.235Z,84.03
2018-04-20T19:56:23.099Z,83.80
2018-04-20T19:58:50.966Z,86.20
2018-04-20T20:01:18.799Z,83.25
2018-04-20T20:03:46.696Z,84.87
2018-04-20T20:06:14.459Z,83.35
2018-04-20T20:08:42.322Z,85.18
2018-04-20T20:11:10.196Z,81.75
2018-04-20T20:13:38.060Z,83.12
2018-04-20T20:16:06.027Z,82.93
2018-04-20T20:18:33.894Z,84.13
2018-04-20T20:21:01.765Z,86.30
2018-04-20T20:23:30.341Z,83.85
2018-04-20T20:25:58.313Z,84.25
2018-04-20T20:28:26.184Z,78.10
2018-04-20T20:30:54.101Z,81.80
2018-04-20T20:33:22.040Z,79.43
2018-04-20T20:35:49.984Z,82.07
2018-04-20T20:38:17.737Z,81.95
2018-04-20T20:40:46.019Z,81.50
2018-04-20T20:43:13.884Z,80.80
2018-04-20T20:48:15.866Z,79.75
2018-04-20T20:50:43.735Z,83.05
2018-04-20T20:53:11.601Z,82.30
2018-04-20T20:55:39.422Z,82.32
2018-04-20T20:58:07.356Z,83.35
2018-04-20T21:00:36.374Z,81.72
2018-04-20T21:03:04.289Z,78.37
2018-04-20T21:05:32.158Z,81.45
2018-04-20T21:08:00.029Z,80.00
2018-04-20T21:10:28.098Z,81.15
2018-04-20T21:12:55.957Z,83.18
2018-04-20T21:15:23.824Z,80.93
2018-04-20T21:17:51.644Z,80.82
2018-04-20T21:20:19.675Z,77.93
2018-04-20T21:22:47.528Z,82.03
2018-04-20T21:25:15.516Z,79.00
2018-04-20T21:27:44.181Z,79.35
2018-04-20T21:30:12.049Z,81.93
2018-04-20T21:32:39.911Z,78.28
2018-04-20T21:35:07.777Z,78.72
2018-04-20T21:37:35.645Z,80.25
2018-04-20T21:40:03.615Z,78.50
2018-04-20T21:42:31.481Z,77.85
2018-04-20T21:44:59.349Z,81.97
2018-04-20T21:47:28.034Z,77.35
2018-04-20T21:49:55.901Z,81.57
2018-04-20T21:52:23.766Z,79.32
2018-04-20T21:54:51.727Z,80.28
2018-04-20T21:57:19.597Z,78.10
2018-04-20T21:59:47.460Z,78.82
2018-04-20T22:02:15.434Z,77.95
2018-04-20T22:04:43.310Z,79.30
2018-04-20T22:07:11.161Z,77.35
2018-04-20T22:09:39.093Z,79.80
2018-04-20T22:12:06.995Z,79.15
2018-04-20T22:14:34.873Z,78.90
2018-04-20T22:17:03.547Z,83.90
2018-04-20T22:19:31.417Z,79.37
2018-04-20T22:21:59.383Z,79.40
2018-04-20T22:24:27.248Z,79.50
2018-04-20T22:26:55.159Z,81.78
2018-04-20T22:29:23.110Z,78.95
2018-04-20T22:31:51.770Z,80.93
2018-04-20T22:34:19.706Z,78.45
2018-04-20T22:36:47.604Z,80.25
2018-04-20T22:39:15.570Z,77.18
2018-04-20T22:41:43.438Z,77.70
2018-04-20T22:44:11.301Z,78.25
2018-04-20T22:46:39.168Z,77.32
2018-04-20T22:49:07.079Z,78.40
2018-04-20T22:51:35.004Z,77.22
2018-04-20T22:54:02.870Z,79.18
2018-04-20T22:56:30.733Z,76.15
2018-04-20T22:58:58.600Z,76.45
2018-04-20T23:01:26.467Z,78.82
2018-04-20T23:03:54.335Z,80.07
2018-04-20T23:06:22.201Z,77.37
2018-04-20T23:08:50.170Z,79.47
2018-04-20T23:11:18.036Z,77.53
2018-04-20T23:13:46.002Z,81.25
2018-04-20T23:16:13.837Z,79.70
2018-04-20T23:18:41.737Z,79.00
2018-04-20T23:21:09.601Z,77.87
2018-04-20T23:23:37.569Z,77.40
2018-04-20T23:26:05.437Z,77.78
2018-04-20T23:28:33.301Z,75.12
2018-04-20T23:31:01.153Z,78.60
2018-04-20T23:33:29.034Z,76.95
2018-04-20T23:35:56.899Z,79.97
2018-04-20T23:38:24.745Z,78.05
2018-04-20T23:40:52.632Z,80.87
2018-04-20T23:43:20.497Z,77.40
2018-04-20T23:45:48.363Z,79.60
2018-04-20T23:48:16.232Z,75.72
2018-04-20T23:50:44.198Z,75.80
2018-04-20T23:53:12.065Z,75.87
2018-04-20T23:55:40.034Z,77.50
2018-04-20T23:58:07.899Z,76.70
